Time,TemperatureF,DewpointF,PressureIn,WindDirection,WindDirectionDegrees,WindSpeedMPH,WindSpeedGustMPH,Humidity,HourlyPrecipIn,Conditions,Clouds,dailyrainin,SoftwareType,DateUTC
2013-05-12 00:03:00,-999.0,-99.9,30.06,WNW,299,0.0,2.0,100,0.00,,,0.00,,2013-05-12 04:03:00,
2013-05-12 00:12:00,73.0,73.0,30.06,WNW,299,0.0,2.0,100,0.00,,,0.00,,2013-05-12 04:12:00,
2013-05-12 00:22:00,73.0,73.0,30.05,WNW,299,0.0,0.0,100,0.00,,,0.00,,2013-05-12 04:22:00,
2013-05-12 00:33:00,73.0,73.0,30.04,WNW,299,0.0,0.0,100,0.00,,,0.00,,2013-05-12 04:33:00,
2013-05-12 00:43:00,72.0,72.0,30.04,WNW,299,0.0,0.0,100,0.00,,,0.00,,2013-05-12 04:43:00,
2013-05-12 00:52:00,72.0,72.0,30.04,WNW,299,0.0,0.0,100,0.00,,,0.00,,2013-05-12 04:52:00,
2013-05-12 01:02:00,72.0,72.0,30.04,WNW,299,0.0,0.0,100,0.00,,,0.00,,2013-05-12 05:02:00,
2013-05-12 01:12:00,72.0,72.0,30.04,WNW,299,0.0,0.0,100,0.00,,,0.00,,2013-05-12 05:12:00,
2013-05-12 01:22:00,72.0,72.0,30.05,WNW,299,0.0,0.0,100,0.00,,,0.00,,2013-05-12 05:22:00,
2013-05-12 01:32:00,71.0,71.0,30.04,WNW,299,0.0,0.0,100,0.00,,,0.00,,2013-05-12 05:32:00,
2013-05-12 01:42:00,71.0,71.0,30.04,WNW,299,0.0,0.0,100,0.00,,,0.00,,2013-05-12 05:42:00,
2013-05-12 01:52:00,71.0,71.0,30.03,WNW,299,0.0,0.0,100,0.00,,,0.00,,2013-05-12 05:52:00,
2013-05-12 02:01:00,71.0,71.0,30.01,WNW,299,0.0,0.0,100,0.00,,,0.00,,2013-05-12 06:01:00,
2013-05-12 02:11:00,71.0,71.0,30.01,WNW,299,0.0,0.0,100,0.00,,,0.00,,2013-05-12 06:11:00,
2013-05-12 02:21:00,71.0,71.0,30.01,WNW,299,0.0,0.0,100,0.00,,,0.00,,2013-05-12 06:21:00,
2013-05-12 02:32:00,72.0,72.0,29.99,WNW,299,0.0,0.0,100,0.00,,,0.00,,2013-05-12 06:32:00,
2013-05-12 02:42:00,72.0,72.0,29.98,WNW,299,0.0,0.0,100,0.00,,,0.00,,2013-05-12 06:42:00,
2013-05-12 02:52:00,72.0,72.0,29.98,WNW,299,0.0,0.0,100,0.00,,,0.00,,2013-05-12 06:52:00,
2013-05-12 03:01:00,72.0,72.0,29.98,WNW,299,0.0,0.0,100,0.00,,,0.00,,2013-05-12 07:01:00,
2013-05-12 03:11:00,72.0,72.0,29.97,WNW,299,0.0,0.0,100,0.00,,,0.00,,2013-05-12 07:11:00,
2013-05-12 03:22:00,72.0,72.0,29.97,WNW,299,0.0,0.0,100,0.00,,,0.00,,2013-05-12 07:22:00,
2013-05-12 03:32:00,72.0,72.0,29.97,WNW,299,0.0,0.0,100,0.00,,,0.00,,2013-05-12 07:32:00,
2013-05-12 03:42:00,72.0,72.0,29.97,WNW,299,0.0,0.0,100,0.00,,,0.00,,2013-05-12 07:42:00,
2013-05-12 03:52:00,71.0,71.0,29.97,WNW,299,0.0,0.0,100,0.00,,,0.00,,2013-05-12 07:52:00,
2013-05-12 04:02:00,71.0,71.0,29.97,WNW,299,0.0,0.0,100,0.00,,,0.00,,2013-05-12 08:02:00,
2013-05-12 04:11:00,72.0,72.0,29.97,WNW,299,0.0,0.0,100,0.00,,,0.00,,2013-05-12 08:11:00,
2013-05-12 04:21:00,72.0,72.0,29.97,WNW,299,0.0,0.0,100,0.00,,,0.00,,2013-05-12 08:21:00,
2013-05-12 04:32:00,71.0,71.0,29.97,WNW,299,0.0,0.0,100,0.00,,,0.00,,2013-05-12 08:32:00,
2013-05-12 04:42:00,71.0,71.0,29.97,WNW,299,0.0,0.0,100,0.00,,,0.00,,2013-05-12 08:42:00,
2013-05-12 04:53:00,71.0,71.0,29.96,WNW,299,0.0,0.0,100,0.00,,,0.00,,2013-05-12 08:53:00,
2013-05-12 05:01:00,71.0,71.0,29.96,WNW,299,0.0,0.0,100,0.00,,,0.00,,2013-05-12 09:01:00,
2013-05-12 05:11:00,71.0,71.0,29.97,WNW,299,0.0,0.0,100,0.00,,,0.00,,2013-05-12 09:11:00,
2013-05-12 05:21:00,71.0,71.0,29.97,WNW,299,0.0,0.0,100,0.00,,,0.00,,2013-05-12 09:21:00,
2013-05-12 05:33:00,71.0,71.0,29.98,WNW,299,0.0,0.0,100,0.00,,,0.00,,2013-05-12 09:33:00,
2013-05-12 05:42:00,71.0,71.0,29.98,WNW,299,0.0,0.0,100,0.00,,,0.00,,2013-05-12 09:42:00,
2013-05-12 05:53:00,71.0,71.0,29.97,WNW,299,0.0,0.0,100,0.00,,,0.00,,2013-05-12 09:53:00,
2013-05-12 06:03:00,71.0,71.0,29.97,WNW,299,0.0,0.0,100,0.00,,,0.00,,2013-05-12 10:03:00,
2013-05-12 06:12:00,71.0,71.0,29.97,WNW,299,0.0,0.0,100,0.00,,,0.00,,2013-05-12 10:12:00,
2013-05-12 06:22:00,71.0,71.0,29.98,WNW,299,0.0,0.0,100,0.00,,,0.00,,2013-05-12 10:22:00,
2013-05-12 06:33:00,71.0,71.0,29.98,WNW,299,0.0,0.0,100,0.00,,,0.00,,2013-05-12 10:33:00,
2013-05-12 06:42:00,71.0,71.0,29.98,WNW,299,0.0,0.0,100,0.00,,,0.00,,2013-05-12 10:42:00,
2013-05-12 06:52:00,71.0,71.0,29.99,WNW,299,0.0,0.0,100,0.00,,,0.00,,2013-05-12 10:52:00,
2013-05-12 07:02:00,71.0,71.0,30.01,WNW,299,0.0,0.0,100,0.00,,,0.00,,2013-05-12 11:02:00,
2013-05-12 07:12:00,71.0,71.0,30.01,WNW,299,0.0,0.0,100,0.00,,,0.00,,2013-05-12 11:12:00,
2013-05-12 07:22:00,71.0,71.0,-100.00,WNW,299,0.0,0.0,100,0.00,,,0.00,,2013-05-12 11:22:00,
2013-05-12 07:32:00,72.0,72.0,30.02,WNW,299,0.0,0.0,100,0.00,,,0.00,,2013-05-12 11:32:00,
2013-05-12 07:42:00,73.0,73.0,30.03,WNW,299,0.0,0.0,100,0.00,,,0.00,,2013-05-12 11:42:00,
2013-05-12 07:52:00,73.0,73.0,30.03,WNW,299,0.0,0.0,100,0.00,,,0.00,,2013-05-12 11:52:00,
2013-05-12 08:02:00,74.0,74.0,30.02,WNW,299,0.0,0.0,100,0.00,,,0.00,,2013-05-12 12:02:00,
2013-05-12 08:11:00,75.0,75.0,30.03,WNW,299,0.0,0.0,100,0.00,,,0.00,,2013-05-12 12:11:00,
2013-05-12 08:22:00,75.0,75.0,30.03,WNW,299,0.0,0.0,100,0.00,,,0.00,,2013-05-12 12:22:00,
2013-05-12 08:32:00,76.0,76.0,30.04,WSW,249,3.0,3.0,100,0.00,,,0.00,,2013-05-12 12:32:00,
2013-05-12 08:41:00,76.0,76.0,30.04,WSW,249,3.0,3.0,100,0.00,,,0.00,,2013-05-12 12:41:00,
2013-05-12 08:52:00,76.0,76.0,30.03,West,260,0.0,1.0,100,0.00,,,0.00,,2013-05-12 12:52:00,
2013-05-12 09:02:00,77.0,77.0,30.05,WSW,258,1.0,2.0,100,0.00,,,0.00,,2013-05-12 13:02:00,
2013-05-12 09:11:00,77.0,77.0,30.05,WSW,258,1.0,2.0,100,0.00,,,0.00,,2013-05-12 13:11:00,
2013-05-12 09:21:00,77.0,77.0,30.05,West,270,3.0,4.0,100,0.00,,,0.00,,2013-05-12 13:21:00,
2013-05-12 09:32:00,79.0,79.0,30.05,WSW,255,4.0,6.0,100,0.00,,,0.00,,2013-05-12 13:32:00,
2013-05-12 09:42:00,79.0,79.0,30.05,WSW,255,4.0,6.0,100,0.00,,,0.00,,2013-05-12 13:42:00,
2013-05-12 09:52:00,79.0,79.0,30.05,West,271,4.0,6.0,100,0.00,,,0.00,,2013-05-12 13:52:00,
2013-05-12 10:01:00,81.0,81.0,30.04,WSW,250,3.0,5.0,100,0.00,,,0.00,,2013-05-12 14:01:00,
2013-05-12 10:11:00,81.0,81.0,30.04,WSW,250,3.0,5.0,100,0.00,,,0.00,,2013-05-12 14:11:00,
2013-05-12 10:21:00,81.0,81.0,30.05,West,263,5.0,6.0,100,0.00,,,0.00,,2013-05-12 14:21:00,
2013-05-12 10:32:00,81.0,81.0,30.05,West,274,1.0,4.0,100,0.00,,,0.00,,2013-05-12 14:32:00,
2013-05-12 10:42:00,81.0,81.0,30.05,WSW,241,2.0,7.0,100,0.00,,,0.00,,2013-05-12 14:42:00,
2013-05-12 10:52:00,81.0,81.0,30.05,WSW,241,2.0,7.0,100,0.00,,,0.00,,2013-05-12 14:52:00,
2013-05-12 11:01:00,81.0,81.0,30.05,WNW,292,2.0,5.0,100,0.00,,,0.00,,2013-05-12 15:01:00,
2013-05-12 11:11:00,81.0,81.0,30.05,WNW,292,2.0,5.0,100,0.00,,,0.00,,2013-05-12 15:11:00,
2013-05-12 11:21:00,83.0,83.0,30.05,West,274,2.0,9.0,100,0.00,,,0.00,,2013-05-12 15:21:00,
2013-05-12 11:34:00,84.0,84.0,30.05,SSW,201,1.0,5.0,100,0.00,,,0.00,,2013-05-12 15:34:00,
2013-05-12 11:42:00,84.0,84.0,30.05,SSW,201,1.0,5.0,100,0.00,,,0.00,,2013-05-12 15:42:00,
2013-05-12 11:53:00,85.0,85.0,30.05,SSW,203,3.0,4.0,100,0.00,,,0.00,,2013-05-12 15:53:00,
2013-05-12 12:02:00,83.0,83.0,30.05,West,271,1.0,5.0,100,0.00,,,0.00,,2013-05-12 16:02:00,
2013-05-12 12:12:00,84.0,84.0,30.05,WSW,256,2.0,5.0,100,0.00,,,0.00,,2013-05-12 16:12:00,
2013-05-12 12:23:00,84.0,84.0,30.05,WSW,256,2.0,5.0,100,0.00,,,0.00,,2013-05-12 16:23:00,
2013-05-12 12:33:00,85.0,85.0,30.05,WSW,257,5.0,7.0,100,0.00,,,0.00,,2013-05-12 16:33:00,
2013-05-12 12:42:00,85.0,85.0,30.05,WSW,257,5.0,7.0,100,0.00,,,0.00,,2013-05-12 16:42:00,
2013-05-12 12:53:00,88.0,88.0,30.04,WSW,247,1.0,4.0,100,0.00,,,0.00,,2013-05-12 16:53:00,
2013-05-12 13:02:00,87.0,87.0,30.04,SSW,199,3.0,4.0,100,0.00,,,0.00,,2013-05-12 17:02:00,
2013-05-12 13:12:00,87.0,87.0,30.03,SW,215,2.0,6.0,100,0.00,,,0.00,,2013-05-12 17:12:00,
2013-05-12 13:22:00,87.0,87.0,30.03,SW,215,2.0,6.0,100,0.00,,,0.00,,2013-05-12 17:22:00,
2013-05-12 13:32:00,88.0,88.0,30.03,West,268,2.0,5.0,100,0.00,,,0.00,,2013-05-12 17:32:00,
2013-05-12 13:42:00,89.0,89.0,30.03,SW,215,3.0,3.0,100,0.00,,,0.00,,2013-05-12 17:42:00,
2013-05-12 13:53:00,89.0,89.0,30.03,SW,215,3.0,3.0,100,0.00,,,0.00,,2013-05-12 17:53:00,
2013-05-12 14:01:00,88.0,88.0,30.03,WSW,244,2.0,6.0,100,0.00,,,0.00,,2013-05-12 18:01:00,
2013-05-12 14:12:00,88.0,88.0,30.03,WSW,244,2.0,6.0,100,0.00,,,0.00,,2013-05-12 18:12:00,
2013-05-12 14:22:00,88.0,88.0,30.03,SSW,208,2.0,7.0,100,0.00,,,0.00,,2013-05-12 18:22:00,
2013-05-12 14:32:00,88.0,88.0,30.03,South,187,2.0,4.0,100,0.00,,,0.00,,2013-05-12 18:32:00,
2013-05-12 14:42:00,88.0,88.0,30.03,South,187,2.0,4.0,100,0.00,,,0.00,,2013-05-12 18:42:00,
2013-05-12 14:52:00,88.0,88.0,30.03,West,263,4.0,10.0,100,0.00,,,0.00,,2013-05-12 18:52:00,
2013-05-12 15:01:00,88.0,88.0,30.03,SW,216,4.0,6.0,100,0.00,,,0.00,,2013-05-12 19:01:00,
2013-05-12 15:11:00,88.0,88.0,30.03,SW,216,4.0,6.0,100,0.00,,,0.00,,2013-05-12 19:11:00,
2013-05-12 15:22:00,88.0,88.0,30.02,SW,235,2.0,5.0,100,0.00,,,0.00,,2013-05-12 19:22:00,
2013-05-12 15:32:00,88.0,88.0,30.01,West,275,4.0,9.0,100,0.00,,,0.00,,2013-05-12 19:32:00,
2013-05-12 15:42:00,89.0,89.0,30.02,WSW,257,4.0,6.0,100,0.00,,,0.00,,2013-05-12 19:42:00,
2013-05-12 15:52:00,89.0,89.0,30.02,WSW,257,4.0,6.0,100,0.00,,,0.00,,2013-05-12 19:52:00,
2013-05-12 16:02:00,90.0,90.0,30.02,SW,226,2.0,5.0,100,0.00,,,0.00,,2013-05-12 20:02:00,
2013-05-12 16:11:00,88.0,88.0,30.01,WNW,292,1.0,5.0,100,0.00,,,0.00,,2013-05-12 20:11:00,
2013-05-12 16:21:00,88.0,88.0,30.01,WNW,292,1.0,5.0,100,0.00,,,0.00,,2013-05-12 20:21:00,
2013-05-12 16:32:00,87.0,87.0,30.01,WNW,294,7.0,12.0,100,0.00,,,0.00,,2013-05-12 20:32:00,
2013-05-12 16:42:00,87.0,87.0,30.01,WNW,294,7.0,12.0,100,0.00,,,0.00,,2013-05-12 20:42:00,
2013-05-12 16:52:00,85.0,85.0,30.01,West,270,3.0,8.0,100,0.00,,,0.00,,2013-05-12 20:52:00,
2013-05-12 17:01:00,87.0,87.0,30.01,WSW,238,2.0,5.0,100,0.00,,,0.00,,2013-05-12 21:01:00,
2013-05-12 17:11:00,87.0,87.0,30.01,NNW,337,7.0,7.0,100,0.00,,,0.00,,2013-05-12 21:11:00,
2013-05-12 17:21:00,87.0,87.0,30.01,NNW,337,7.0,7.0,100,0.00,,,0.00,,2013-05-12 21:21:00,
2013-05-12 17:33:00,87.0,87.0,30.01,NW,313,7.0,10.0,100,0.00,,,0.00,,2013-05-12 21:33:00,
2013-05-12 17:42:00,87.0,87.0,30.01,NW,313,7.0,10.0,100,0.00,,,0.00,,2013-05-12 21:42:00,
2013-05-12 17:53:00,84.0,84.0,30.01,WNW,291,3.0,9.0,100,0.00,,,0.00,,2013-05-12 21:53:00,
2013-05-12 18:02:00,83.0,83.0,30.01,WNW,293,6.0,10.0,100,0.00,,,0.00,,2013-05-12 22:02:00,
2013-05-12 18:12:00,81.0,81.0,30.01,NW,316,7.0,7.0,100,0.00,,,0.00,,2013-05-12 22:12:00,
2013-05-12 18:23:00,81.0,81.0,30.01,NW,316,7.0,7.0,100,0.00,,,0.00,,2013-05-12 22:23:00,
2013-05-12 18:33:00,83.0,83.0,30.01,NW,326,7.0,7.0,100,0.00,,,0.00,,2013-05-12 22:33:00,
2013-05-12 18:42:00,83.0,83.0,30.01,NW,326,7.0,7.0,100,0.00,,,0.00,,2013-05-12 22:42:00,
2013-05-12 18:52:00,81.0,81.0,30.01,North,352,2.0,6.0,100,0.00,,,0.00,,2013-05-12 22:52:00,
2013-05-12 19:02:00,80.0,80.0,30.01,WNW,285,2.0,7.0,100,0.00,,,0.00,,2013-05-12 23:02:00,
2013-05-12 19:12:00,79.0,79.0,30.00,North,352,6.0,9.0,100,0.00,,,0.00,,2013-05-12 23:12:00,
2013-05-12 19:22:00,79.0,79.0,30.00,North,352,6.0,9.0,100,0.00,,,0.00,,2013-05-12 23:22:00,
2013-05-12 19:32:00,78.0,78.0,30.01,NW,321,3.0,5.0,100,0.00,,,0.00,,2013-05-12 23:32:00,
2013-05-12 19:42:00,78.0,78.0,30.01,NW,321,3.0,5.0,100,0.00,,,0.00,,2013-05-12 23:42:00,
2013-05-12 19:52:00,77.0,77.0,30.01,NW,314,6.0,6.0,100,0.00,,,0.00,,2013-05-12 23:52:00,
2013-05-12 20:01:00,77.0,77.0,30.02,West,271,1.0,7.0,100,0.00,,,0.00,,2013-05-13 00:01:00,
2013-05-12 20:11:00,77.0,77.0,30.02,West,271,1.0,7.0,100,0.00,,,0.00,,2013-05-13 00:11:00,
2013-05-12 20:21:00,76.0,76.0,30.03,West,280,3.0,5.0,100,0.00,,,0.00,,2013-05-13 00:21:00,
2013-05-12 20:32:00,76.0,76.0,30.03,WNW,292,3.0,3.0,100,0.00,,,0.00,,2013-05-13 00:32:00,
2013-05-12 20:42:00,75.0,75.0,30.03,West,268,0.0,0.0,100,0.00,,,0.00,,2013-05-13 00:42:00,
2013-05-12 20:52:00,75.0,75.0,30.03,West,268,0.0,0.0,100,0.00,,,0.00,,2013-05-13 00:52:00,
2013-05-12 21:01:00,75.0,75.0,30.03,West,268,0.0,0.0,100,0.00,,,0.00,,2013-05-13 01:01:00,
2013-05-12 21:11:00,75.0,75.0,30.03,West,268,0.0,0.0,100,0.00,,,0.00,,2013-05-13 01:11:00,
2013-05-12 21:22:00,75.0,75.0,30.04,West,268,0.0,0.0,100,0.00,,,0.00,,2013-05-13 01:22:00,
2013-05-12 21:31:00,75.0,75.0,30.05,West,268,0.0,0.0,100,0.00,,,0.00,,2013-05-13 01:31:00,
2013-05-12 21:42:00,75.0,75.0,30.05,West,268,0.0,0.0,100,0.00,,,0.00,,2013-05-13 01:42:00,
2013-05-12 21:52:00,74.0,74.0,30.05,West,268,0.0,0.0,100,0.00,,,0.00,,2013-05-13 01:52:00,
2013-05-12 22:02:00,75.0,75.0,30.05,West,268,0.0,0.0,100,0.00,,,0.00,,2013-05-13 02:02:00,
2013-05-12 22:11:00,75.0,75.0,30.05,West,268,0.0,0.0,100,0.00,,,0.00,,2013-05-13 02:11:00,
2013-05-12 22:21:00,75.0,75.0,30.05,West,268,0.0,0.0,100,0.00,,,0.00,,2013-05-13 02:21:00,
2013-05-12 22:32:00,74.0,74.0,30.06,West,269,0.0,0.0,100,0.00,,,0.00,,2013-05-13 02:32:00,
2013-05-12 22:42:00,74.0,74.0,30.06,West,269,0.0,0.0,100,0.00,,,0.00,,2013-05-13 02:42:00,
2013-05-12 22:52:00,74.0,74.0,30.05,West,274,1.0,5.0,100,0.00,,,0.00,,2013-05-13 02:52:00,
2013-05-12 23:02:00,74.0,74.0,30.06,West,274,0.0,0.0,100,0.00,,,0.00,,2013-05-13 03:02:00,
2013-05-12 23:11:00,74.0,74.0,30.06,West,273,0.0,0.0,100,0.00,,,0.00,,2013-05-13 03:11:00,
2013-05-12 23:21:00,74.0,74.0,30.06,West,273,0.0,0.0,100,0.00,,,0.00,,2013-05-13 03:21:00,
2013-05-12 23:32:00,74.0,74.0,30.06,West,273,0.0,0.0,100,0.00,,,0.00,,2013-05-13 03:32:00,
2013-05-12 23:42:00,74.0,74.0,30.06,West,273,0.0,0.0,100,0.00,,,0.00,,2013-05-13 03:42:00,
2013-05-12 23:53:00,73.0,73.0,30.06,West,273,0.0,0.0,100,0.00,,,0.00,,2013-05-13 03:53:00,